Time;durP1;ratioP1;P1;durP2;ratioP2;P2;SDS_P1;SDS_P2;PMS_P1;PMS_P2;Temp;Humidity;BMP_temperature;BMP_pressure;BME280_temperature;BME280_humidity;BME280_pressure;Samples;Min_cycle;Max_cycle;Signal;HPM_P1;HPM_P2
2023/02/11 07:33:05;;;;;;;183.73;79.00;;;;;;;;;;4871629;24;20050;-76
2023/02/11 07:35:31;;;;;;;165.25;75.90;;;;;;;;;;4823943;29;20117;-64
2023/02/11 07:37:57;;;;;;;145.18;63.22;;;;;;;;;;4841072;29;20030;-60
2023/02/11 07:40:23;;;;;;;129.48;56.38;;;;;;;;;;4840773;29;20034;-68
2023/02/11 07:42:49;;;;;;;111.47;50.88;;;;;;;;;;4840913;29;20063;-63
2023/02/11 07:45:16;;;;;;;104.80;48.40;;;;;;;;;;4840902;29;20033;-67
2023/02/11 07:47:42;;;;;;;92.00;43.83;;;;;;;;;;4840732;29;20100;-61
2023/02/11 07:50:09;;;;;;;85.60;41.25;;;;;;;;;;4839638;29;20098;-61
2023/02/11 07:52:35;;;;;;;87.60;41.22;;;;;;;;;;4839732;29;20082;-65
2023/02/11 07:55:01;;;;;;;84.53;41.95;;;;;;;;;;4839169;29;20038;-69
2023/02/11 07:57:27;;;;;;;94.40;43.10;;;;;;;;;;4839172;29;20025;-74
2023/02/11 07:59:53;;;;;;;99.65;44.67;;;;;;;;;;4839248;29;20022;-61
2023/02/11 08:02:19;;;;;;;94.85;45.15;;;;;;;;;;4839229;29;20094;-69
2023/02/11 08:04:46;;;;;;;99.30;46.55;;;;;;;;;;4839089;29;20065;-74
2023/02/11 08:07:14;;;;;;;94.65;45.22;;;;;;;;;;4839492;29;20030;-61
2023/02/11 08:09:40;;;;;;;105.97;48.63;;;;;;;;;;4839260;29;20507;-71
2023/02/11 08:12:06;;;;;;;97.57;46.55;;;;;;;;;;4839495;29;20097;-66
2023/02/11 08:14:32;;;;;;;102.65;48.75;;;;;;;;;;4839249;29;20085;-65
2023/02/11 08:16:58;;;;;;;94.00;44.63;;;;;;;;;;4839131;29;20084;-73
2023/02/11 08:19:25;;;;;;;92.78;43.58;;;;;;;;;;4839076;29;20034;-64
2023/02/11 08:21:54;;;;;;;94.07;43.60;;;;;;;;;;4839319;29;20463;-60
2023/02/11 08:24:20;;;;;;;89.40;42.30;;;;;;;;;;4838787;29;20559;-68
2023/02/11 08:26:46;;;;;;;85.95;41.85;;;;;;;;;;4839113;29;20029;-60
2023/02/11 08:29:13;;;;;;;82.63;41.00;;;;;;;;;;4840403;29;20041;-61
2023/02/11 08:31:40;;;;;;;89.40;43.63;;;;;;;;;;4838387;29;20514;-61
2023/02/11 08:34:06;;;;;;;82.55;38.75;;;;;;;;;;4839688;29;20034;-66
2023/02/11 08:36:34;;;;;;;77.85;37.28;;;;;;;;;;4839833;29;20472;-68
2023/02/11 08:39:04;;;;;;;77.90;36.53;;;;;;;;;;4843031;29;20034;-70
2023/02/11 08:41:33;;;;;;;68.63;34.08;;;;;;;;;;4841770;29;20036;-72
2023/02/11 08:43:59;;;;;;;70.10;35.35;;;;;;;;;;4839383;29;20444;-75
2023/02/11 08:46:26;;;;;;;78.22;38.20;;;;;;;;;;4840667;29;20544;-70
2023/02/11 08:48:52;;;;;;;67.43;33.85;;;;;;;;;;4840369;29;20042;-68
2023/02/11 08:51:20;;;;;;;65.32;32.75;;;;;;;;;;4838986;29;20026;-66
2023/02/11 08:53:46;;;;;;;70.72;33.30;;;;;;;;;;4839700;29;20026;-64
2023/02/11 08:56:13;;;;;;;71.35;34.97;;;;;;;;;;4838231;29;20037;-63
2023/02/11 08:58:40;;;;;;;76.88;36.45;;;;;;;;;;4838989;29;20042;-66
2023/02/11 09:01:13;;;;;;;67.40;35.33;;;;;;;;;;4839177;29;20498;-63
2023/02/11 09:03:39;;;;;;;70.70;33.58;;;;;;;;;;4839614;29;20041;-61
2023/02/11 09:06:06;;;;;;;63.20;32.42;;;;;;;;;;4839955;29;20474;-75
2023/02/11 09:08:36;;;;;;;68.78;33.45;;;;;;;;;;4843037;29;20415;-63
2023/02/11 09:11:02;;;;;;;68.75;34.90;;;;;;;;;;4827234;29;20034;-60
2023/02/11 09:13:29;;;;;;;67.18;34.80;;;;;;;;;;4843565;29;20022;-73
2023/02/11 09:15:55;;;;;;;76.22;34.90;;;;;;;;;;4843194;29;20514;-64
2023/02/11 09:18:21;;;;;;;69.93;34.72;;;;;;;;;;4843473;29;20609;-62
2023/02/11 09:20:47;;;;;;;71.43;34.08;;;;;;;;;;4842513;29;20018;-60
2023/02/11 09:23:13;;;;;;;68.85;31.30;;;;;;;;;;4842373;29;20040;-63
2023/02/11 09:25:40;;;;;;;64.80;32.15;;;;;;;;;;4841345;29;20030;-59
2023/02/11 09:28:06;;;;;;;69.07;33.00;;;;;;;;;;4840544;29;20104;-62
2023/02/11 09:30:32;;;;;;;55.83;28.13;;;;;;;;;;4840961;29;20450;-69
2023/02/11 09:32:58;;;;;;;59.60;29.42;;;;;;;;;;4842604;29;20047;-73
2023/02/11 09:35:24;;;;;;;48.45;27.23;;;;;;;;;;4843557;29;20058;-79
2023/02/11 09:37:50;;;;;;;56.50;27.33;;;;;;;;;;4841497;29;20038;-78
2023/02/11 09:40:17;;;;;;;54.67;27.42;;;;;;;;;;4841998;29;20424;-64
2023/02/11 09:42:53;;;;;;;50.72;26.23;;;;;;;;;;4841668;29;20367;-59
2023/02/11 09:45:21;;;;;;;47.95;26.20;;;;;;;;;;4841919;29;20040;-61
2023/02/11 09:48:08;;;;;;;61.30;27.45;;;;;;;;;;4840922;29;20018;-78
2023/02/11 09:50:35;;;;;;;53.45;27.77;;;;;;;;;;4828254;29;20493;-62
2023/02/11 09:53:03;;;;;;;53.92;26.35;;;;;;;;;;4841484;29;20101;-61
2023/02/11 09:55:38;;;;;;;57.53;27.42;;;;;;;;;;4841972;29;20052;-76
2023/02/11 09:58:12;;;;;;;55.33;27.55;;;;;;;;;;4823372;29;20026;-64
2023/02/11 10:00:47;;;;;;;54.92;28.00;;;;;;;;;;4840732;29;20022;-62
2023/02/11 10:03:37;;;;;;;57.53;28.65;;;;;;;;;;4828980;29;20049;-66
2023/02/11 10:06:09;;;;;;;53.72;27.60;;;;;;;;;;4828939;29;20034;-64
2023/02/11 10:08:55;;;;;;;55.28;27.75;;;;;;;;;;4829624;29;20071;-71
2023/02/11 10:11:47;;;;;;;50.88;27.05;;;;;;;;;;4827817;29;20075;-69
2023/02/11 10:14:34;;;;;;;49.10;25.15;;;;;;;;;;4838932;29;20038;-67
2023/02/11 10:17:06;;;;;;;50.63;25.38;;;;;;;;;;4838629;29;20146;-65
2023/02/11 10:19:51;;;;;;;46.17;24.73;;;;;;;;;;4824829;29;20452;-63
2023/02/11 10:22:21;;;;;;;48.20;23.98;;;;;;;;;;4841939;29;20465;-72
2023/02/11 10:24:52;;;;;;;42.03;21.42;;;;;;;;;;4842554;29;20030;-70
2023/02/11 10:27:20;;;;;;;48.03;24.20;;;;;;;;;;4842708;29;20541;-70
2023/02/11 10:29:49;;;;;;;52.70;25.73;;;;;;;;;;4841948;29;20042;-61
2023/02/11 10:32:26;;;;;;;52.55;25.65;;;;;;;;;;4841309;29;20054;-70
2023/02/11 10:34:54;;;;;;;49.45;24.10;;;;;;;;;;4842328;29;20037;-61
2023/02/11 10:37:20;;;;;;;45.05;22.67;;;;;;;;;;4842230;29;20485;-63
2023/02/11 10:39:47;;;;;;;45.05;23.13;;;;;;;;;;4841917;29;20475;-66
2023/02/11 10:42:13;;;;;;;43.05;23.17;;;;;;;;;;4841721;29;20522;-60
2023/02/11 10:44:43;;;;;;;43.92;23.23;;;;;;;;;;4842306;29;20382;-59
2023/02/11 10:47:13;;;;;;;52.60;25.83;;;;;;;;;;4841755;29;20113;-72
2023/02/11 10:49:43;;;;;;;46.80;24.38;;;;;;;;;;4841708;29;20077;-60
2023/02/11 10:52:17;;;;;;;49.88;26.33;;;;;;;;;;4841888;29;20061;-72
2023/02/11 10:54:56;;;;;;;48.95;25.50;;;;;;;;;;4841715;29;20514;-60
2023/02/11 10:57:24;;;;;;;52.33;27.23;;;;;;;;;;4841523;29;20034;-73
2023/02/11 10:59:57;;;;;;;58.65;27.70;;;;;;;;;;4841547;29;20720;-62
2023/02/11 11:02:24;;;;;;;55.67;25.30;;;;;;;;;;4841345;29;20114;-66
2023/02/11 11:04:56;;;;;;;48.75;24.48;;;;;;;;;;4841593;29;20034;-58
2023/02/11 11:07:26;;;;;;;52.53;24.55;;;;;;;;;;4841643;29;20034;-73
2023/02/11 11:09:54;;;;;;;42.70;21.48;;;;;;;;;;4841357;29;20046;-67
2023/02/11 11:12:43;;;;;;;45.13;22.48;;;;;;;;;;4841305;29;20140;-67
2023/02/11 11:15:09;;;;;;;44.00;21.15;;;;;;;;;;4831865;29;20190;-60
2023/02/11 11:17:35;;;;;;;42.42;23.17;;;;;;;;;;4841292;29;20026;-59
2023/02/11 11:20:20;;;;;;;44.05;20.33;;;;;;;;;;4841249;29;20041;-63
2023/02/11 11:22:47;;;;;;;42.17;21.60;;;;;;;;;;4841030;29;20034;-61
2023/02/11 11:25:21;;;;;;;43.88;22.45;;;;;;;;;;4841355;29;20026;-64
2023/02/11 11:27:54;;;;;;;43.78;22.33;;;;;;;;;;4840944;29;20029;-59
2023/02/11 11:30:20;;;;;;;39.20;20.15;;;;;;;;;;4840215;29;20064;-58
2023/02/11 11:32:47;;;;;;;48.97;24.38;;;;;;;;;;4840601;29;20058;-71
2023/02/11 11:35:21;;;;;;;43.42;23.05;;;;;;;;;;4840987;29;20050;-66
2023/02/11 11:37:52;;;;;;;46.78;24.05;;;;;;;;;;4841082;29;20490;-73
2023/02/11 11:40:23;;;;;;;44.25;23.73;;;;;;;;;;4840913;29;20045;-61
2023/02/11 11:43:03;;;;;;;51.00;23.40;;;;;;;;;;4840790;29;20045;-59
2023/02/11 11:45:29;;;;;;;47.50;23.05;;;;;;;;;;4841141;29;20323;-62
2023/02/11 11:47:59;;;;;;;46.88;23.63;;;;;;;;;;4840591;29;20407;-59
2023/02/11 11:50:25;;;;;;;49.67;24.80;;;;;;;;;;4840827;29;20048;-65
2023/02/11 11:52:54;;;;;;;42.15;21.52;;;;;;;;;;4840765;29;20026;-58
2023/02/11 11:55:21;;;;;;;42.92;21.55;;;;;;;;;;4840689;29;20108;-72
2023/02/11 11:57:48;;;;;;;42.00;22.08;;;;;;;;;;4840489;29;20030;-67
2023/02/11 12:00:16;;;;;;;43.45;22.90;;;;;;;;;;4840430;29;20063;-71
2023/02/11 12:02:49;;;;;;;44.00;22.73;;;;;;;;;;4840330;29;20030;-69
2023/02/11 12:05:38;;;;;;;44.72;22.75;;;;;;;;;;4823805;29;20409;-67
2023/02/11 12:08:22;;;;;;;43.80;21.55;;;;;;;;;;4840075;29;20029;-69
2023/02/11 12:10:48;;;;;;;47.90;23.45;;;;;;;;;;4840515;29;20174;-60
2023/02/11 12:13:22;;;;;;;43.83;23.33;;;;;;;;;;4839847;29;20101;-66
2023/02/11 12:16:00;;;;;;;50.17;23.17;;;;;;;;;;4839420;29;20038;-71
2023/02/11 12:18:26;;;;;;;49.08;24.70;;;;;;;;;;4840012;29;20034;-67
2023/02/11 12:21:02;;;;;;;47.70;24.30;;;;;;;;;;4840261;29;20042;-67
2023/02/11 12:23:46;;;;;;;44.08;23.88;;;;;;;;;;4840187;29;20044;-70
2023/02/11 12:26:18;;;;;;;49.90;24.83;;;;;;;;;;4840089;29;20486;-61
2023/02/11 12:28:52;;;;;;;50.33;25.02;;;;;;;;;;4840023;29;20045;-64
2023/02/11 12:31:38;;;;;;;46.60;24.48;;;;;;;;;;4839170;29;20042;-69
2023/02/11 12:34:12;;;;;;;41.85;21.98;;;;;;;;;;4839851;29;20038;-66
2023/02/11 12:36:38;;;;;;;48.40;23.10;;;;;;;;;;4840326;29;20475;-67
2023/02/11 12:39:11;;;;;;;46.53;22.88;;;;;;;;;;4840250;29;20045;-67
2023/02/11 12:44:29;;;;;;;46.97;23.98;;;;;;;;;;4843960;29;20045;-67
2023/02/11 12:47:06;;;;;;;48.08;24.73;;;;;;;;;;4844011;29;20026;-68
2023/02/11 12:49:49;;;;;;;47.50;22.23;;;;;;;;;;4843895;29;20771;-72
2023/02/11 12:52:15;;;;;;;46.75;23.35;;;;;;;;;;4843773;29;20482;-72
2023/02/11 12:54:41;;;;;;;42.50;21.65;;;;;;;;;;4844024;29;20083;-72
2023/02/11 12:57:17;;;;;;;50.80;24.50;;;;;;;;;;4843825;29;20038;-71
2023/02/11 12:59:43;;;;;;;44.40;23.98;;;;;;;;;;4843817;29;20022;-61
2023/02/11 13:02:21;;;;;;;50.25;24.40;;;;;;;;;;4843592;29;20497;-70
2023/02/11 13:04:52;;;;;;;51.78;25.92;;;;;;;;;;4843613;29;20038;-71
2023/02/11 13:07:37;;;;;;;56.92;28.13;;;;;;;;;;4843264;29;20038;-72
2023/02/11 13:10:06;;;;;;;52.15;26.33;;;;;;;;;;4843278;29;20046;-61
2023/02/11 13:15:17;;;;;;;53.22;27.73;;;;;;;;;;4843345;29;20072;-71
2023/02/11 13:17:48;;;;;;;60.22;27.40;;;;;;;;;;4843473;29;20475;-69
2023/02/11 13:20:21;;;;;;;56.40;28.17;;;;;;;;;;4843289;29;20032;-68
2023/02/11 13:23:00;;;;;;;54.30;27.98;;;;;;;;;;4843405;29;20129;-62
2023/02/11 13:25:35;;;;;;;60.67;31.05;;;;;;;;;;4843253;29;20094;-63
2023/02/11 13:28:26;;;;;;;50.50;27.35;;;;;;;;;;4842989;29;20483;-72
2023/02/11 13:31:01;;;;;;;53.88;28.13;;;;;;;;;;4768053;30;20453;-59
2023/02/11 13:33:34;;;;;;;51.50;26.42;;;;;;;;;;4750701;30;20385;-70
2023/02/11 13:36:00;;;;;;;55.17;27.60;;;;;;;;;;4750642;30;20044;-61
2023/02/11 13:38:33;;;;;;;60.15;28.63;;;;;;;;;;4750569;30;20032;-63
2023/02/11 13:41:04;;;;;;;51.00;27.10;;;;;;;;;;4750551;30;20048;-64
2023/02/11 13:43:32;;;;;;;52.47;26.45;;;;;;;;;;4750229;30;20514;-61
2023/02/11 13:45:59;;;;;;;52.30;27.25;;;;;;;;;;4750323;30;20190;-70
2023/02/11 13:48:25;;;;;;;47.28;25.85;;;;;;;;;;4749840;30;20132;-59
2023/02/11 13:50:53;;;;;;;50.05;25.98;;;;;;;;;;4750055;30;20136;-64
2023/02/11 13:53:20;;;;;;;52.67;27.05;;;;;;;;;;4749882;30;20464;-70
2023/02/11 13:55:50;;;;;;;53.13;26.95;;;;;;;;;;4750482;30;20048;-62
2023/02/11 13:58:16;;;;;;;51.92;27.05;;;;;;;;;;4750150;30;20044;-65
2023/02/11 14:00:45;;;;;;;48.38;25.23;;;;;;;;;;4749784;30;20062;-59
2023/02/11 14:09:28;;;;;;;47.25;23.70;;;;;;;;;;4818519;29;20066;-71
2023/02/11 14:11:56;;;;;;;49.28;24.60;;;;;;;;;;4823847;29;20079;-71
2023/02/11 14:14:26;;;;;;;46.80;25.60;;;;;;;;;;4823885;29;20034;-62
2023/02/11 14:17:13;;;;;;;45.33;24.25;;;;;;;;;;4824306;29;20072;-69
2023/02/11 14:19:48;;;;;;;48.08;25.52;;;;;;;;;;4749812;30;20539;-68
2023/02/11 14:22:17;;;;;;;43.03;24.80;;;;;;;;;;4750041;30;20071;-59
2023/02/11 14:24:49;;;;;;;48.00;24.95;;;;;;;;;;4749632;30;20058;-65
2023/02/11 14:27:27;;;;;;;43.83;23.83;;;;;;;;;;4749677;30;20123;-68
2023/02/11 14:30:12;;;;;;;42.33;22.95;;;;;;;;;;4749774;29;20051;-71
2023/02/11 14:32:44;;;;;;;47.92;24.83;;;;;;;;;;4761807;30;20112;-72
2023/02/11 14:35:22;;;;;;;44.15;24.00;;;;;;;;;;4767611;30;20050;-69
2023/02/11 14:38:09;;;;;;;46.78;23.20;;;;;;;;;;4767677;30;20131;-70
2023/02/11 14:40:46;;;;;;;48.53;25.67;;;;;;;;;;4767662;30;20166;-58
2023/02/11 14:43:13;;;;;;;48.78;25.60;;;;;;;;;;4767319;30;20044;-70
2023/02/11 14:45:39;;;;;;;47.40;24.42;;;;;;;;;;4767250;30;20042;-62
2023/02/11 14:48:11;;;;;;;49.13;24.88;;;;;;;;;;4767071;30;20050;-65
2023/02/11 14:50:37;;;;;;;46.50;23.45;;;;;;;;;;4767244;30;20055;-58
2023/02/11 14:53:05;;;;;;;45.08;23.17;;;;;;;;;;4767403;30;20440;-70
2023/02/11 14:55:36;;;;;;;45.10;23.33;;;;;;;;;;4767305;30;20039;-62
2023/02/11 14:58:15;;;;;;;34.63;17.92;;;;;;;;;;4822885;29;20133;-59
2023/02/11 15:01:10;;;;;;;42.13;23.00;;;;;;;;;;4822984;29;20037;-59
2023/02/11 15:03:38;;;;;;;45.08;23.45;;;;;;;;;;4809068;29;20046;-60
2023/02/11 15:06:07;;;;;;;47.97;24.92;;;;;;;;;;4822278;29;20031;-71
2023/02/11 15:08:35;;;;;;;49.58;25.02;;;;;;;;;;4823103;29;20034;-60
2023/02/11 15:11:02;;;;;;;50.00;26.13;;;;;;;;;;4823176;29;20035;-65
2023/02/11 15:13:30;;;;;;;51.25;27.05;;;;;;;;;;4822941;29;20031;-64
2023/02/11 15:16:03;;;;;;;52.75;28.08;;;;;;;;;;4822922;29;20038;-70
2023/02/11 15:18:50;;;;;;;51.58;27.30;;;;;;;;;;4822871;29;20030;-69
2023/02/11 15:21:20;;;;;;;55.28;28.05;;;;;;;;;;4823272;29;20118;-68
2023/02/11 15:23:54;;;;;;;53.88;27.50;;;;;;;;;;4823128;29;20055;-62
2023/02/11 15:26:21;;;;;;;54.30;28.25;;;;;;;;;;4822782;29;20041;-70
2023/02/11 15:28:50;;;;;;;60.40;30.45;;;;;;;;;;4822804;29;20172;-69
2023/02/11 15:31:17;;;;;;;56.72;29.27;;;;;;;;;;4824934;29;20049;-71
2023/02/11 15:33:44;;;;;;;57.22;27.73;;;;;;;;;;4841005;29;20041;-60
2023/02/11 15:36:14;;;;;;;58.03;29.05;;;;;;;;;;4841146;29;20033;-70
2023/02/11 15:38:40;;;;;;;56.42;28.58;;;;;;;;;;4840846;29;20040;-60
2023/02/11 15:41:06;;;;;;;54.83;28.77;;;;;;;;;;4841031;29;20046;-71
2023/02/11 15:43:42;;;;;;;62.95;27.75;;;;;;;;;;4840846;29;20105;-66
2023/02/11 15:46:09;;;;;;;53.67;26.05;;;;;;;;;;4841106;29;20112;-60
2023/02/11 15:48:36;;;;;;;53.67;27.50;;;;;;;;;;4840799;29;20053;-60
2023/02/11 15:51:19;;;;;;;56.28;26.02;;;;;;;;;;4840732;29;20058;-58
2023/02/11 15:53:45;;;;;;;;;;;;;;;;;;4841219;29;20033;-60
2023/02/11 15:56:17;;;;;;;49.70;24.45;;;;;;;;;;4841062;29;19913;-59
2023/02/11 15:58:43;;;;;;;;;;;;;;;;;;4841155;29;20038;-67
2023/02/11 16:01:09;;;;;;;56.33;25.50;;;;;;;;;;4840769;29;19927;-59
2023/02/11 16:03:35;;;;;;;51.15;26.55;;;;;;;;;;4840639;29;20380;-59
2023/02/11 16:06:20;;;;;;;57.65;27.23;;;;;;;;;;4840692;29;20478;-59
2023/02/11 16:08:56;;;;;;;56.38;27.27;;;;;;;;;;4840487;29;20034;-59
2023/02/11 16:11:25;;;;;;;58.20;26.27;;;;;;;;;;4840694;29;20041;-59
2023/02/11 16:13:51;;;;;;;57.13;29.02;;;;;;;;;;4840421;29;20509;-65
2023/02/11 16:16:19;;;;;;;59.15;30.10;;;;;;;;;;4840431;29;20030;-67
2023/02/11 16:18:49;;;;;;;67.68;29.02;;;;;;;;;;4840587;29;20038;-59
2023/02/11 16:21:17;;;;;;;62.92;29.42;;;;;;;;;;4840482;29;20041;-60
2023/02/11 16:23:48;;;;;;;60.58;28.98;;;;;;;;;;4840596;29;20114;-71
2023/02/11 16:26:24;;;;;;;62.38;30.13;;;;;;;;;;4840195;29;20040;-68
2023/02/11 16:28:50;;;;;;;59.42;30.20;;;;;;;;;;4840097;29;20048;-71
2023/02/11 16:31:16;;;;;;;66.20;30.08;;;;;;;;;;4839484;29;20061;-65
2023/02/11 16:33:42;;;;;;;59.80;30.13;;;;;;;;;;4840381;29;20038;-72
2023/02/11 16:36:13;;;;;;;70.03;31.23;;;;;;;;;;4840125;29;20026;-60
2023/02/11 16:38:39;;;;;;;80.35;34.50;;;;;;;;;;4840197;29;20038;-70
2023/02/11 16:41:05;;;;;;;74.70;35.83;;;;;;;;;;4839958;29;20105;-66
2023/02/11 16:43:31;;;;;;;76.65;38.85;;;;;;;;;;4840099;29;20040;-69
2023/02/11 16:45:58;;;;;;;74.28;37.58;;;;;;;;;;4840071;29;20042;-67
2023/02/11 16:48:24;;;;;;;78.53;37.60;;;;;;;;;;4837347;29;20398;-67
2023/02/11 16:50:50;;;;;;;73.13;35.58;;;;;;;;;;4840034;29;20051;-64
2023/02/11 16:53:18;;;;;;;70.28;34.28;;;;;;;;;;4840216;29;20086;-71
2023/02/11 16:55:44;;;;;;;62.50;32.47;;;;;;;;;;4839724;29;20089;-69
2023/02/11 16:58:10;;;;;;;64.22;32.35;;;;;;;;;;4839470;29;20061;-71
2023/02/11 17:00:36;;;;;;;64.15;31.55;;;;;;;;;;4839845;29;20077;-62
2023/02/11 17:03:05;;;;;;;67.85;31.63;;;;;;;;;;4839580;29;20050;-66
2023/02/11 17:05:31;;;;;;;61.13;28.92;;;;;;;;;;4839776;29;20069;-66
2023/02/11 17:07:57;;;;;;;63.83;30.73;;;;;;;;;;4839328;29;20030;-69
2023/02/11 17:10:23;;;;;;;61.70;30.40;;;;;;;;;;4842480;29;20046;-70
2023/02/11 17:12:50;;;;;;;57.95;30.95;;;;;;;;;;4857990;29;20072;-61
2023/02/11 17:15:16;;;;;;;62.75;29.40;;;;;;;;;;4857405;29;20120;-68
2023/02/11 17:17:42;;;;;;;57.50;29.77;;;;;;;;;;4838582;29;20063;-61
2023/02/11 17:20:11;;;;;;;58.33;29.83;;;;;;;;;;4821643;29;20042;-66
2023/02/11 17:22:37;;;;;;;59.80;29.45;;;;;;;;;;4839073;29;20483;-66
2023/02/11 17:25:03;;;;;;;61.08;31.05;;;;;;;;;;4839673;29;20106;-61
2023/02/11 17:27:29;;;;;;;71.32;33.55;;;;;;;;;;4840110;29;20457;-71
2023/02/11 17:29:55;;;;;;;66.63;33.53;;;;;;;;;;4843184;29;20132;-69
2023/02/11 17:32:21;;;;;;;68.38;31.77;;;;;;;;;;4842606;29;20688;-68
2023/02/11 17:34:47;;;;;;;67.28;31.02;;;;;;;;;;4843316;29;20041;-71
2023/02/11 17:37:13;;;;;;;63.22;32.20;;;;;;;;;;4843136;29;20030;-61
2023/02/11 17:39:39;;;;;;;72.97;33.35;;;;;;;;;;4843264;29;20026;-68
2023/02/11 17:42:06;;;;;;;65.63;32.88;;;;;;;;;;4843143;29;20030;-66
2023/02/11 17:44:32;;;;;;;71.10;33.97;;;;;;;;;;4845029;29;20026;-61
2023/02/11 17:46:58;;;;;;;73.95;34.58;;;;;;;;;;4842133;29;20038;-62
2023/02/11 17:49:24;;;;;;;74.82;37.83;;;;;;;;;;4842308;29;20052;-70
2023/02/11 17:51:50;;;;;;;80.38;39.08;;;;;;;;;;4842405;29;20121;-62
2023/02/11 17:54:17;;;;;;;98.07;42.15;;;;;;;;;;4825231;29;20447;-63
2023/02/11 17:56:44;;;;;;;107.00;47.17;;;;;;;;;;4842353;29;20025;-62
2023/02/11 17:59:12;;;;;;;102.72;46.60;;;;;;;;;;4842346;29;20080;-66
2023/02/11 18:01:39;;;;;;;95.25;44.67;;;;;;;;;;4842025;29;20125;-64
2023/02/11 18:04:05;;;;;;;92.25;42.00;;;;;;;;;;4840369;29;20078;-67
2023/02/11 18:06:32;;;;;;;113.85;50.10;;;;;;;;;;4841922;29;20167;-67
2023/02/11 18:09:01;;;;;;;141.95;62.10;;;;;;;;;;4842018;29;20509;-63
2023/02/11 18:11:29;;;;;;;147.95;66.95;;;;;;;;;;4842329;29;20026;-62
2023/02/11 18:13:55;;;;;;;127.03;59.50;;;;;;;;;;4841669;29;20039;-65
2023/02/11 18:16:21;;;;;;;117.90;54.97;;;;;;;;;;4840902;29;20102;-66
2023/02/11 18:18:48;;;;;;;101.53;48.72;;;;;;;;;;4824442;29;20049;-64
2023/02/11 18:21:15;;;;;;;98.45;47.10;;;;;;;;;;4841786;29;20030;-66
2023/02/11 18:23:41;;;;;;;97.18;45.92;;;;;;;;;;4841496;29;20108;-62
2023/02/11 18:26:08;;;;;;;90.90;44.72;;;;;;;;;;4841615;29;20500;-63
2023/02/11 18:28:34;;;;;;;91.90;45.72;;;;;;;;;;4841678;29;20060;-66
2023/02/11 18:31:01;;;;;;;89.30;46.45;;;;;;;;;;4824197;29;20491;-69
2023/02/11 18:33:27;;;;;;;106.45;51.75;;;;;;;;;;4840859;29;20058;-61
2023/02/11 18:35:53;;;;;;;106.30;48.45;;;;;;;;;;4859998;29;20049;-60
2023/02/11 18:38:19;;;;;;;97.55;48.72;;;;;;;;;;4860172;29;20040;-59
2023/02/11 18:40:46;;;;;;;103.78;48.38;;;;;;;;;;4843062;29;20506;-63
2023/02/11 18:43:15;;;;;;;108.18;50.15;;;;;;;;;;4841388;29;20038;-60
2023/02/11 18:45:42;;;;;;;116.38;55.33;;;;;;;;;;4838902;29;20065;-59
2023/02/11 18:48:08;;;;;;;140.80;65.25;;;;;;;;;;4840192;29;20112;-63
2023/02/11 18:50:34;;;;;;;129.70;61.00;;;;;;;;;;4840445;29;20041;-66
2023/02/11 18:53:00;;;;;;;126.22;60.05;;;;;;;;;;4841896;29;20435;-68
2023/02/11 18:55:26;;;;;;;134.90;63.63;;;;;;;;;;4841777;29;20037;-62
2023/02/11 18:57:53;;;;;;;125.55;59.17;;;;;;;;;;4841529;29;20030;-60
2023/02/11 19:00:20;;;;;;;116.15;54.67;;;;;;;;;;4840931;29;20033;-65
2023/02/11 19:02:46;;;;;;;129.80;60.70;;;;;;;;;;4841123;29;20037;-67
2023/02/11 19:05:12;;;;;;;126.57;60.63;;;;;;;;;;4841311;29;20040;-61
2023/02/11 19:07:38;;;;;;;124.43;59.58;;;;;;;;;;4841676;29;20129;-69
2023/02/11 19:10:05;;;;;;;124.43;59.05;;;;;;;;;;4841342;29;20125;-65
2023/02/11 19:12:31;;;;;;;114.47;56.17;;;;;;;;;;4840927;29;20037;-60
2023/02/11 19:14:59;;;;;;;125.75;60.88;;;;;;;;;;4841254;29;20118;-66
2023/02/11 19:17:25;;;;;;;133.57;60.47;;;;;;;;;;4841192;29;20554;-68
2023/02/11 19:19:51;;;;;;;119.07;55.70;;;;;;;;;;4840957;29;20034;-69
2023/02/11 19:22:17;;;;;;;122.15;57.38;;;;;;;;;;4840905;29;20683;-59
2023/02/11 19:24:44;;;;;;;127.75;59.65;;;;;;;;;;4841351;29;20094;-67
2023/02/11 19:27:10;;;;;;;115.25;56.20;;;;;;;;;;4840969;29;20049;-65
2023/02/11 19:29:36;;;;;;;114.15;57.67;;;;;;;;;;4839658;29;20553;-70
2023/02/11 19:32:04;;;;;;;120.88;58.67;;;;;;;;;;4838925;29;20058;-62
2023/02/11 19:34:30;;;;;;;122.45;58.63;;;;;;;;;;4839943;29;20049;-65
2023/02/11 19:36:58;;;;;;;141.23;65.47;;;;;;;;;;4839911;29;20026;-63
2023/02/11 19:39:24;;;;;;;148.13;73.45;;;;;;;;;;4839526;29;20419;-67
2023/02/11 19:41:51;;;;;;;178.20;83.35;;;;;;;;;;4837001;29;20033;-66
2023/02/11 19:44:17;;;;;;;187.07;87.57;;;;;;;;;;4838334;29;20738;-64
2023/02/11 19:46:43;;;;;;;199.57;92.88;;;;;;;;;;4839318;29;20033;-71
2023/02/11 19:49:10;;;;;;;186.15;83.53;;;;;;;;;;4839090;29;20368;-65
2023/02/11 19:51:38;;;;;;;182.60;81.88;;;;;;;;;;4848438;29;20029;-63
2023/02/11 19:54:04;;;;;;;191.13;85.80;;;;;;;;;;4857895;29;20405;-61
2023/02/11 19:56:30;;;;;;;241.32;106.70;;;;;;;;;;4858547;29;20037;-66
2023/02/11 19:58:56;;;;;;;241.93;104.82;;;;;;;;;;4858940;29;20029;-60
2023/02/11 20:01:23;;;;;;;255.07;111.85;;;;;;;;;;4842003;29;20025;-63
2023/02/11 20:03:50;;;;;;;249.98;111.55;;;;;;;;;;4858769;29;20041;-68
2023/02/11 20:06:17;;;;;;;277.02;120.50;;;;;;;;;;4858232;29;20597;-60
2023/02/11 20:08:43;;;;;;;204.32;93.95;;;;;;;;;;4858180;29;20041;-62
2023/02/11 20:11:10;;;;;;;210.05;95.28;;;;;;;;;;4858342;29;20169;-59
2023/02/11 20:13:37;;;;;;;195.10;94.80;;;;;;;;;;4845752;29;20526;-69
2023/02/11 20:16:04;;;;;;;201.02;95.78;;;;;;;;;;4839253;29;20038;-60
2023/02/11 20:18:30;;;;;;;201.93;92.95;;;;;;;;;;4840398;29;20034;-62
2023/02/11 20:21:00;;;;;;;222.50;96.20;;;;;;;;;;4840320;29;20033;-65
2023/02/11 20:23:26;;;;;;;199.73;94.20;;;;;;;;;;4840125;29;20105;-65
2023/02/11 20:25:52;;;;;;;220.77;97.05;;;;;;;;;;4839820;29;20034;-64
2023/02/11 20:28:18;;;;;;;201.32;91.05;;;;;;;;;;4840272;29;20036;-65
2023/02/11 20:30:44;;;;;;;183.63;84.50;;;;;;;;;;4839778;29;20410;-61
2023/02/11 20:33:10;;;;;;;194.90;87.90;;;;;;;;;;4839137;29;20062;-66
2023/02/11 20:35:36;;;;;;;196.90;85.82;;;;;;;;;;4839668;29;20041;-66
2023/02/11 20:38:02;;;;;;;222.55;93.78;;;;;;;;;;4840055;29;20034;-61
2023/02/11 20:40:28;;;;;;;218.38;95.35;;;;;;;;;;4840121;29;20505;-65
2023/02/11 20:42:55;;;;;;;186.73;86.75;;;;;;;;;;4839703;29;20034;-66
2023/02/11 20:45:21;;;;;;;169.85;80.35;;;;;;;;;;4839852;29;20030;-61
2023/02/11 20:47:47;;;;;;;143.48;68.57;;;;;;;;;;4839988;29;20029;-65
2023/02/11 20:50:13;;;;;;;137.32;63.75;;;;;;;;;;4839614;29;20542;-62
2023/02/11 20:52:39;;;;;;;122.30;58.05;;;;;;;;;;4839782;29;20032;-66
2023/02/11 20:55:05;;;;;;;124.72;57.08;;;;;;;;;;4840126;29;20439;-67
2023/02/11 20:57:33;;;;;;;110.20;56.50;;;;;;;;;;4839459;29;20022;-61
2023/02/11 21:00:00;;;;;;;110.97;53.58;;;;;;;;;;4839422;29;20046;-59
2023/02/11 21:02:26;;;;;;;105.45;49.70;;;;;;;;;;4839334;29;20065;-61
2023/02/11 21:04:52;;;;;;;106.40;49.67;;;;;;;;;;4843386;29;20458;-63
2023/02/11 21:07:18;;;;;;;104.00;50.38;;;;;;;;;;4842906;29;20494;-63
2023/02/11 21:09:44;;;;;;;99.10;49.63;;;;;;;;;;4843116;29;20046;-59
2023/02/11 21:12:10;;;;;;;92.97;46.80;;;;;;;;;;4843355;29;20033;-60
2023/02/11 21:14:36;;;;;;;92.90;45.83;;;;;;;;;;4843494;29;20038;-64
2023/02/11 21:17:02;;;;;;;105.07;48.22;;;;;;;;;;4843538;29;20026;-60
2023/02/11 21:19:28;;;;;;;91.50;44.88;;;;;;;;;;4843143;29;20033;-60
2023/02/11 21:21:56;;;;;;;94.40;46.05;;;;;;;;;;4843061;29;20038;-61
2023/02/11 21:24:22;;;;;;;92.63;47.10;;;;;;;;;;4843253;29;20138;-60
2023/02/11 21:26:48;;;;;;;91.43;47.65;;;;;;;;;;4843216;29;20518;-68
2023/02/11 21:29:14;;;;;;;107.13;52.40;;;;;;;;;;4842964;29;20044;-64
2023/02/11 21:31:40;;;;;;;94.88;46.17;;;;;;;;;;4842799;29;20117;-62
2023/02/11 21:34:06;;;;;;;94.03;45.55;;;;;;;;;;4842578;29;20030;-68
2023/02/11 21:36:33;;;;;;;92.95;44.80;;;;;;;;;;4842453;29;20034;-63
2023/02/11 21:39:00;;;;;;;95.47;44.22;;;;;;;;;;4843218;29;20038;-61
2023/02/11 21:41:27;;;;;;;91.75;44.95;;;;;;;;;;4842934;29;20444;-64
2023/02/11 21:43:53;;;;;;;86.90;43.55;;;;;;;;;;4842641;29;20064;-61
2023/02/11 21:46:19;;;;;;;91.32;44.30;;;;;;;;;;4843122;29;20034;-61
2023/02/11 21:48:45;;;;;;;88.47;45.05;;;;;;;;;;4842815;29;20042;-64
2023/02/11 21:51:13;;;;;;;94.45;46.30;;;;;;;;;;4842469;29;20026;-64
2023/02/11 21:53:39;;;;;;;92.97;45.28;;;;;;;;;;4842639;29;20033;-61
2023/02/11 21:56:26;;;;;;;99.30;46.72;;;;;;;;;;4843045;29;20034;-64
2023/02/11 21:58:53;;;;;;;90.43;45.20;;;;;;;;;;4842977;29;20033;-64
2023/02/11 22:01:20;;;;;;;83.82;40.83;;;;;;;;;;4842366;29;20424;-60
2023/02/11 22:03:47;;;;;;;87.93;42.75;;;;;;;;;;4842525;29;20042;-62
2023/02/11 22:06:14;;;;;;;84.20;40.92;;;;;;;;;;4857527;29;20437;-63
2023/02/11 22:08:40;;;;;;;85.22;40.85;;;;;;;;;;4860498;29;20086;-65